Latest Weather Observations for Norah Head

IDN60901

Issued at 9:41 pm EDT Wednesday 1 April 2015 (issued every 10 minutes, with the page automatically refreshed every 10 minutes)

About weather observations | Map of Sydney area stations | Latest observations for Sydney area | Other Formats
Station Details ID: 061366 Name: NORAH HEAD AWS Lat: -33.28 Lon: 151.58 Height: 18.8 m
Data from the previous 72 hours. | See also: Recent months at Norah Head
Date/Time
EDT
Tmp

°C
App
Tmp
°C
Dew
Point
°C
Rel
Hum
%
Delta-T

°C
Wind Press
QNH
hPa
Press
MSL
hPa
Rain
since
9 am
mm
Dir
 
Spd
km/h
Gust
km/h
Spd
kts
Gust
kts
01/09:30pm 22.6 19.3 19.2 81 2.2 NNE 35 39 19 21 1020.1 1020.0 0.0
01/09:00pm 22.8 19.3 19.6 82 2.0 NNE 37 43 20 23 1020.1 1020.0 0.0
01/08:30pm 22.6 18.6 19.4 82 2.0 NNE 39 44 21 24 1020.1 1020.0 0.0
01/08:00pm 22.7 19.8 20.0 85 1.7 NNE 35 43 19 23 1020.2 1020.1 0.0
01/07:30pm 22.8 19.5 20.0 84 1.8 NNE 37 43 20 23 1020.0 1019.9 0.0
01/07:00pm 22.8 19.8 19.8 83 1.9 NE 35 43 19 23 1019.8 1019.7 0.0
01/06:30pm 22.8 19.8 19.8 83 1.9 NE 35 41 19 22 1019.6 1019.5 0.0
01/06:00pm 22.7 20.3 19.9 84 1.8 NE 32 39 17 21 1019.4 1019.3 0.0
01/05:30pm 22.8 20.2 19.8 83 1.9 NE 33 39 18 21 1019.5 1019.4 0.0
01/05:00pm 22.9 19.9 19.9 83 1.9 NE 35 41 19 22 1019.3 1019.2 0.0
01/04:30pm 23.2 20.2 19.8 81 2.2 NE 35 41 19 22 1019.6 1019.5 0.0
01/04:00pm 23.6 21.0 19.5 78 2.6 NE 32 37 17 20 1020.0 1019.9 0.0
01/03:30pm 24.4 23.0 19.7 75 3.0 NE 26 32 14 17 1020.4 1020.3 0.0
01/03:00pm 26.2 26.5 20.5 71 3.7 NE 19 20 10 11 1020.9 1020.8 0.0
01/02:30pm 26.8 28.5 20.9 70 3.9 NE 13 17 7 9 1021.3 1021.2 0.0
01/02:00pm 27.0 28.5 22.0 74 3.3 NE 17 20 9 11 1021.6 1021.5 0.0
01/01:30pm 25.3 26.1 21.4 79 2.6 NE 19 22 10 12 1022.1 1022.0 0.0
01/01:00pm 24.5 24.1 20.2 77 2.8 NE 22 26 12 14 1022.7 1022.6 0.0
01/12:30pm 23.3 21.3 19.2 78 2.6 NE 28 33 15 18 1023.2 1023.1 0.0
01/12:00pm 23.6 22.2 19.7 79 2.5 NNE 26 32 14 17 1023.8 1023.7 0.0
01/11:30am 23.3 22.9 20.1 82 2.1 NNE 22 28 12 15 1024.2 1024.1 0.0
01/11:00am 23.1 23.3 20.2 84 1.9 NNE 19 22 10 12 1024.5 1024.4 0.0
01/10:30am 23.1 24.4 20.2 84 1.9 NNE 13 20 7 11 1024.6 1024.5 0.0
01/10:00am 22.5 24.5 19.9 85 1.7 N 9 13 5 7 1025.0 1024.9 0.0
01/09:30am 22.1 24.7 20.0 88 1.3 NNW 6 7 3 4 1025.1 1025.0 0.0
01/09:00am 21.5 24.5 20.1 92 0.9 NNW 4 6 2 3 1025.0 1024.9 4.2
01/08:30am 20.7 23.7 20.0 96 0.4 WNW 4 6 2 3 1024.9 1024.8 4.2
01/08:00am 19.9 23.3 19.4 97 0.3 CALM 0 0 0 0 1024.6 1024.5 4.2
01/07:30am 19.4 21.6 19.1 98 0.2 SW 6 9 3 5 1024.3 1024.2 4.2
01/07:00am 18.6 20.2 18.3 98 0.2 SW 7 9 4 5 1024.3 1024.2 4.2
01/06:30am 18.4 19.5 18.1 98 0.2 WSW 9 11 5 6 1024.0 1023.9 4.0
01/06:00am 18.5 20.1 18.2 98 0.2 WSW 7 11 4 6 1023.7 1023.6 4.0
01/05:30am 18.8 21.7 18.3 97 0.3 CALM 0 4 0 2 1023.3 1023.2 4.0
01/05:00am 18.7 19.9 18.2 97 0.3 WSW 9 13 5 7 1023.2 1023.1 4.0
01/04:30am 18.6 20.3 18.1 97 0.3 WSW 6 7 3 4 1022.9 1022.8 4.0
01/04:00am 18.7 21.5 18.0 96 0.4 CALM 0 6 0 3 1023.2 1023.1 4.0
01/03:30am 18.9 21.4 18.2 96 0.4 NNW 2 4 1 2 1023.5 1023.4 4.0
01/03:00am 19.0 20.8 18.3 96 0.4 WNW 6 7 3 4 1023.9 1023.8 4.0
01/02:30am 19.4 21.1 18.6 95 0.5 W 7 9 4 5 1024.2 1024.1 2.8
01/02:00am 19.1 20.2 18.1 94 0.6 WSW 9 11 5 6 1024.4 1024.3 2.8
01/01:30am 19.0 20.6 18.2 95 0.5 WSW 7 11 4 6 1024.7 1024.6 2.8
01/01:00am 19.1 20.9 18.4 96 0.4 WNW 6 9 3 5 1024.9 1024.8 2.8
01/12:30am 19.2 21.2 18.7 97 0.3 NW 6 7 3 4 1025.1 1025.0 2.8
01/12:00am 19.4 20.1 18.9 97 0.3 N 13 17 7 9 1025.2 1025.1 2.8
 
Date/Time
EDT
Tmp

°C
App
Tmp
°C
Dew
Point
°C
Rel
Hum
%
Delta-T

°C
Wind Press
QNH
hPa
Press
MSL
hPa
Rain
since
9 am
mm
Dir
 
Spd
km/h
Gust
km/h
Spd
kts
Gust
kts
31/11:30pm 19.7 18.6 18.7 94 0.6 N 22 30 12 16 1025.1 1025.0 2.8
31/11:00pm 20.6 20.0 18.4 87 1.4 ENE 19 35 10 19 1025.3 1025.2 0.2
31/10:30pm 21.1 21.1 18.9 87 1.4 ESE 17 20 9 11 1025.3 1025.2 0.2
31/10:00pm 21.0 20.8 18.4 85 1.6 ESE 17 20 9 11 1025.4 1025.3 0.2
31/09:30pm 20.8 21.0 18.6 87 1.4 ESE 15 17 8 9 1025.4 1025.3 0.2
31/09:00pm 20.7 19.9 17.9 84 1.7 E 19 22 10 12 1025.5 1025.4 0.2
31/08:30pm 20.9 19.1 17.9 83 1.9 E 24 28 13 15 1025.4 1025.3 0.2
31/08:00pm 20.0 19.1 18.1 89 1.2 E 20 26 11 14 1025.3 1025.2 0.2
31/07:30pm 19.9 16.1 18.0 89 1.2 E 35 44 19 24 1025.1 1025.0 0.2
31/07:20pm 20.6 17.1 18.0 85 1.6 E 33 44 18 24 1025.0 1024.9 0.0
31/07:00pm 21.1 18.1 17.7 81 2.1 SE 30 35 16 19 1024.8 1024.7 0.0
31/06:30pm 21.3 18.6 17.5 79 2.3 SSE 28 33 15 18 1024.6 1024.5 0.0
31/06:00pm 21.9 19.6 17.5 76 2.7 SE 26 32 14 17 1024.5 1024.4 0.0
31/05:30pm 21.7 19.8 16.6 73 3.1 SSE 22 26 12 14 1024.3 1024.2 0.0
31/05:00pm 22.1 21.2 15.9 68 3.7 SSE 15 17 8 9 1024.2 1024.1 0.0
31/04:30pm 23.0 23.0 16.3 66 4.1 SE 11 13 6 7 1024.3 1024.2 0.0
31/04:00pm 21.7 21.4 15.5 68 3.7 ESE 11 13 6 7 1024.4 1024.3 0.0
31/03:30pm 22.2 21.7 16.0 68 3.7 ESE 13 17 7 9 1024.6 1024.5 0.0
31/03:00pm 21.7 23.0 18.5 82 2.0 SSE 9 15 5 8 1024.7 1024.6 0.0
31/02:30pm 21.3 22.4 18.1 82 2.0 SSE 9 13 5 7 1024.8 1024.7 0.0
31/02:00pm 21.6 23.1 17.6 78 2.5 SSE 6 9 3 5 1025.1 1025.0 0.0
31/01:30pm 21.8 24.3 17.2 75 2.8 CALM 0 0 0 0 1025.4 1025.3 0.0
31/01:00pm 21.4 23.0 17.0 76 2.7 NNE 4 6 2 3 1025.7 1025.6 0.0
31/12:30pm 21.7 22.8 17.1 75 2.8 NE 7 11 4 6 1026.0 1025.9 0.0
31/12:00pm 20.8 19.7 17.4 81 2.1 N 19 20 10 11 1026.4 1026.3 0.0
31/11:30am 20.1 16.5 17.3 84 1.7 NE 32 37 17 20 1026.6 1026.5 0.0
31/11:00am 22.1 21.5 18.5 80 2.2 ENE 19 22 10 12 1026.7 1026.6 0.0
31/10:30am 21.3 22.4 18.9 86 1.5 ENE 11 15 6 8 1026.9 1026.8 0.0
31/10:00am 20.0 20.1 18.3 90 1.1 NE 15 20 8 11 1026.7 1026.6 0.0
31/09:30am 19.5 16.5 17.8 90 1.0 NE 30 35 16 19 1026.4 1026.3 0.0
31/09:00am 20.6 20.0 18.9 90 1.1 NE 20 24 11 13 1026.1 1026.0 5.6
31/08:30am 19.6 18.2 17.9 90 1.0 ENE 22 28 12 15 1025.7 1025.6 5.6
31/08:00am 20.1 18.2 18.6 91 0.9 E 26 30 14 16 1025.4 1025.3 5.4
31/07:30am 20.1 18.4 18.1 88 1.2 ENE 24 28 13 15 1025.0 1024.9 5.4
31/07:00am 19.7 20.0 18.0 90 1.0 SE 13 20 7 11 1024.8 1024.7 5.4
31/06:30am 20.4 21.5 18.9 91 0.9 SSE 11 19 6 10 1024.5 1024.4 5.4
31/06:00am 20.2 20.2 19.0 93 0.8 S 17 22 9 12 1024.3 1024.2 5.4
31/05:30am 19.9 20.5 18.7 93 0.7 S 13 20 7 11 1024.1 1024.0 5.4
31/05:00am 19.9 20.8 18.4 91 0.9 S 11 17 6 9 1024.0 1023.9 5.4
31/04:30am 19.5 20.4 17.6 89 1.2 S 9 17 5 9 1023.8 1023.7 5.4
31/04:00am 19.7 20.3 17.7 88 1.2 SSW 11 15 6 8 1023.9 1023.8 5.4
31/03:30am 19.6 20.1 18.3 92 0.8 SSW 13 17 7 9 1024.2 1024.1 5.4
31/03:00am 19.6 20.9 18.4 93 0.7 SSW 9 17 5 9 1024.3 1024.2 5.4
31/02:30am 19.5 21.1 17.8 90 1.0 SW 6 9 3 5 1024.4 1024.3 5.4
31/02:00am 19.2 20.9 17.2 88 1.2 SSW 4 6 2 3 1024.7 1024.6 5.2
31/01:30am 18.9 21.5 17.4 91 0.9 CALM 0 0 0 0 1024.7 1024.6 5.2
31/01:00am 18.7 20.2 17.7 94 0.6 ESE 6 7 3 4 1024.9 1024.8 5.2
31/12:30am 18.4 20.0 17.8 96 0.4 NE 6 7 3 4 1024.8 1024.7 5.2
31/12:00am 18.8 19.2 18.1 96 0.4 NNE 13 17 7 9 1024.9 1024.8 5.2
 
Date/Time
EDT
Tmp

°C
App
Tmp
°C
Dew
Point
°C
Rel
Hum
%
Delta-T

°C
Wind Press
QNH
hPa
Press
MSL
hPa
Rain
since
9 am
mm
Dir
 
Spd
km/h
Gust
km/h
Spd
kts
Gust
kts
30/11:30pm 19.1 18.4 18.6 97 0.3 NNE 20 24 11 13 1024.9 1024.8 5.0
30/11:00pm 19.3 18.8 19.0 98 0.2 NNE 20 24 11 13 1025.0 1024.9 5.0
30/10:30pm 19.4 19.1 19.1 98 0.2 NNE 19 22 10 12 1025.4 1025.3 4.4
30/10:00pm 19.3 18.7 18.8 97 0.3 NNE 20 26 11 14 1025.3 1025.2 3.0
30/09:30pm 19.3 16.8 18.8 97 0.3 N 30 39 16 21 1024.9 1024.8 1.8
30/09:00pm 19.1 14.5 17.9 93 0.7 N 39 46 21 25 1024.5 1024.4 0.8
30/08:30pm 20.0 16.2 17.2 84 1.7 NNE 33 43 18 23 1024.4 1024.3 0.0
30/08:00pm 20.7 17.3 16.7 78 2.4 NE 30 39 16 21 1024.0 1023.9 0.0
30/07:53pm 21.3 19.7 17.5 79 2.3 ENE 22 35 12 19 1023.9 1023.8 0.0
30/07:30pm 22.2 23.2 18.6 80 2.3 E 11 13 6 7 1023.7 1023.6 0.0
30/07:00pm 22.2 22.9 18.8 81 2.1 ENE 13 17 7 9 1023.4 1023.3 0.0
30/06:30pm 22.3 22.7 19.1 82 2.0 E 15 19 8 10 1023.4 1023.3 0.0
30/06:00pm 22.2 22.0 18.6 80 2.3 E 17 20 9 11 1022.9 1022.8 0.0
30/05:30pm 22.5 21.7 18.5 78 2.5 E 20 24 11 13 1022.8 1022.7 0.0
30/05:00pm 22.5 22.1 18.9 80 2.3 E 19 22 10 12 1022.5 1022.4 0.0
30/04:30pm 22.5 22.6 18.3 77 2.6 E 15 17 8 9 1022.4 1022.3 0.0
30/04:00pm 22.1 21.9 18.5 80 2.3 ESE 17 20 9 11 1022.3 1022.2 0.0
30/03:30pm 21.9 21.2 18.3 80 2.3 ESE 19 24 10 13 1022.6 1022.5 0.0
30/03:00pm 22.0 20.3 18.0 78 2.5 SE 24 28 13 15 1022.7 1022.6 0.0
30/02:30pm 22.4 20.1 18.4 78 2.5 SE 28 33 15 18 1022.7 1022.6 0.0
30/02:00pm 23.7 22.7 18.8 74 3.1 SE 22 30 12 16 1023.0 1022.9 0.0
30/01:30pm 23.7 23.5 17.7 69 3.7 ESE 15 19 8 10 1023.4 1023.3 0.0
30/01:00pm 23.0 22.0 17.5 71 3.4 ESE 19 22 10 12 1023.6 1023.5 0.0
30/12:30pm 21.7 19.5 17.9 79 2.4 SE 26 32 14 17 1023.8 1023.7 0.0
30/12:00pm 22.4 21.6 20.1 87 1.5 S 24 35 13 19 1023.7 1023.6 0.0
30/11:30am 22.3 22.2 20.0 87 1.5 S 20 26 11 14 1023.7 1023.6 0.0
30/11:00am 21.7 23.1 19.6 88 1.3 S 11 19 6 10 1023.6 1023.5 0.0
30/10:30am 21.2 23.5 19.5 90 1.1 SW 6 9 3 5 1023.6 1023.5 0.0
30/10:00am 20.9 23.3 20.1 95 0.5 NW 7 17 4 9 1023.6 1023.5 0.0
30/09:30am 20.1 21.7 19.1 94 0.6 NW 9 13 5 7 1024.1 1024.0 0.0
30/09:00am 19.6 20.6 18.6 94 0.6 W 11 20 6 11 1023.9 1023.8 0.0
30/08:30am 19.3 19.8 18.3 94 0.6 W 13 20 7 11 1023.8 1023.7 0.0
30/08:00am 19.4 19.9 18.4 94 0.6 W 13 19 7 10 1023.6 1023.5 0.0
30/07:30am 19.6 19.8 18.6 94 0.6 W 15 20 8 11 1023.2 1023.1 0.0
30/07:00am 19.6 19.8 18.6 94 0.6 W 15 19 8 10 1022.9 1022.8 0.0
30/06:30am 19.7 19.9 18.5 93 0.7 WSW 15 17 8 9 1022.3 1022.2 0.0
30/06:00am 20.8 23.0 19.5 92 0.8 SW 7 11 4 6 1022.0 1021.9 0.0
30/05:30am 21.2 23.2 20.0 93 0.8 SSW 9 11 5 6 1021.6 1021.5 0.0
30/05:00am 21.1 23.5 19.7 92 0.9 SW 6 9 3 5 1021.4 1021.3 0.0
30/04:30am 20.6 22.7 18.9 90 1.1 SW 6 9 3 5 1021.2 1021.1 0.0
30/04:00am 20.8 24.1 19.1 90 1.1 CALM 0 6 0 3 1021.1 1021.0 0.0
30/03:30am 21.1 24.4 19.2 89 1.2 CALM 0 0 0 0 1021.3 1021.2 0.0
30/03:00am 21.4 24.8 19.3 88 1.3 CALM 0 0 0 0 1021.6 1021.5 0.0
30/02:30am 21.4 24.4 19.3 88 1.3 NE 2 6 1 3 1021.8 1021.7 0.0
30/02:00am 21.2 24.4 18.9 87 1.4 CALM 0 0 0 0 1022.0 1021.9 0.0
30/01:30am 21.0 23.3 18.6 86 1.5 NNW 4 6 2 3 1022.1 1022.0 0.0
30/01:00am 21.4 23.9 19.1 87 1.4 NNW 4 7 2 4 1022.2 1022.1 0.0
30/12:30am 21.8 23.2 19.5 87 1.5 N 11 13 6 7 1022.3 1022.2 0.0
30/12:00am 22.2 21.5 19.6 85 1.7 NNE 22 24 12 13 1022.4 1022.3 0.0
 
Date/Time
EDT
Tmp

°C
App
Tmp
°C
Dew
Point
°C
Rel
Hum
%
Delta-T

°C
Wind Press
QNH
hPa
Press
MSL
hPa
Rain
since
9 am
mm
Dir
 
Spd
km/h
Gust
km/h
Spd
kts
Gust
kts
29/11:30pm 22.4 21.4 19.6 84 1.8 NNE 24 28 13 15 1022.5 1022.4 0.0
29/11:00pm 22.5 21.2 19.9 85 1.7 NNE 26 30 14 16 1022.6 1022.5 0.0
29/10:30pm 22.5 21.1 19.7 84 1.8 NNE 26 32 14 17 1022.4 1022.3 0.0
29/10:00pm 22.5 20.7 19.5 83 1.9 NE 28 35 15 19 1022.3 1022.2 0.0

Latest Capital City Observations: Canberra | Sydney | Melbourne | Brisbane | Adelaide | Perth | Hobart | Darwin

Other Formats:

Comma delimited format used in spreadsheet applications
http://www.bom.gov.au/fwo/IDN60901/IDN60901.95770.axf

JavaScript Object Notation format (JSON) in row-major order
http://www.bom.gov.au/fwo/IDN60901/IDN60901.95770.json